createdAt,value
2017-11-16T00:01:01.182Z,9.20
2017-11-16T00:02:04.442Z,9.20
2017-11-16T00:03:07.206Z,9.20
2017-11-16T00:04:09.720Z,9.20
2017-11-16T00:05:12.267Z,9.20
2017-11-16T00:06:15.526Z,9.20
2017-11-16T00:07:18.157Z,9.20
2017-11-16T00:08:20.636Z,9.20
2017-11-16T00:09:23.220Z,9.20
2017-11-16T00:10:25.694Z,9.20
2017-11-16T00:11:28.159Z,9.20
2017-11-16T00:12:30.653Z,9.10
2017-11-16T00:13:34.102Z,9.20
2017-11-16T00:14:36.647Z,9.20
2017-11-16T00:15:39.216Z,9.20
2017-11-16T00:16:41.686Z,9.20
2017-11-16T00:17:44.242Z,9.20
2017-11-16T00:18:46.725Z,9.20
2017-11-16T00:19:50.545Z,9.20
2017-11-16T00:20:53.039Z,9.20
2017-11-16T00:21:55.539Z,9.20
2017-11-16T00:22:58.014Z,9.20
2017-11-16T00:24:00.576Z,9.20
2017-11-16T00:25:03.076Z,9.10
2017-11-16T00:26:06.857Z,9.20
2017-11-16T00:27:09.353Z,9.20
2017-11-16T00:28:12.819Z,9.10
2017-11-16T00:29:15.330Z,9.10
2017-11-16T00:30:17.817Z,9.20
2017-11-16T00:31:20.348Z,9.10
2017-11-16T00:32:22.879Z,9.10
2017-11-16T00:33:25.366Z,9.10
2017-11-16T00:34:28.806Z,9.20
2017-11-16T00:35:31.307Z,9.10
2017-11-16T00:36:34.776Z,9.10
2017-11-16T00:37:38.388Z,9.10
2017-11-16T00:38:41.980Z,9.10
2017-11-16T00:39:45.248Z,9.10
2017-11-16T00:40:47.890Z,9.10
2017-11-16T00:41:50.393Z,9.10
2017-11-16T00:42:52.971Z,9.10
2017-11-16T00:43:56.246Z,9.10
2017-11-16T00:44:58.874Z,9.10
2017-11-16T00:46:01.375Z,9.10
2017-11-16T00:47:03.918Z,9.10
2017-11-16T00:48:06.398Z,9.10
2017-11-16T00:49:09.913Z,9.10
2017-11-16T00:50:13.155Z,9.10
2017-11-16T00:51:15.848Z,9.00
2017-11-16T00:52:18.354Z,9.00
2017-11-16T00:53:20.874Z,9.00
2017-11-16T00:54:23.367Z,9.00
2017-11-16T00:55:26.798Z,9.00
2017-11-16T00:56:29.296Z,9.00
2017-11-16T00:57:31.792Z,9.00
2017-11-16T00:58:34.296Z,9.00
2017-11-16T00:59:36.884Z,9.00
2017-11-16T01:00:39.396Z,9.00
2017-11-16T01:01:41.893Z,9.00
2017-11-16T01:02:44.391Z,9.00
2017-11-16T01:03:46.969Z,9.00
2017-11-16T01:04:50.960Z,9.00
2017-11-16T01:05:53.508Z,9.00
2017-11-16T01:06:56.022Z,9.00
2017-11-16T01:07:58.519Z,9.00
2017-11-16T01:09:01.026Z,9.00
2017-11-16T01:10:03.545Z,9.00
2017-11-16T01:11:06.034Z,9.00
2017-11-16T01:12:08.620Z,9.00
2017-11-16T01:13:11.110Z,9.00
2017-11-16T01:14:13.701Z,8.90
2017-11-16T01:15:16.188Z,8.90
2017-11-16T01:16:19.026Z,9.00
2017-11-16T01:17:21.502Z,8.90
2017-11-16T01:18:25.032Z,9.00
2017-11-16T01:19:28.328Z,8.90
2017-11-16T01:20:30.872Z,8.90
2017-11-16T01:21:33.449Z,8.90
2017-11-16T01:22:37.749Z,8.90
2017-11-16T01:23:40.275Z,8.90
2017-11-16T01:24:44.025Z,9.00
2017-11-16T01:25:46.535Z,8.90
2017-11-16T01:26:49.039Z,8.90
2017-11-16T01:27:51.526Z,8.90
2017-11-16T01:28:55.021Z,8.90
2017-11-16T01:29:58.311Z,8.90
2017-11-16T01:31:01.869Z,8.90
2017-11-16T01:32:04.362Z,8.90
2017-11-16T01:33:07.842Z,8.90
2017-11-16T01:34:10.352Z,8.90
2017-11-16T01:35:13.201Z,8.90
2017-11-16T01:36:16.455Z,8.90
2017-11-16T01:37:19.161Z,8.90
2017-11-16T01:38:22.410Z,8.90
2017-11-16T01:39:25.061Z,8.90
2017-11-16T01:40:28.043Z,8.90
2017-11-16T01:41:30.762Z,8.90
2017-11-16T01:42:33.236Z,8.90
2017-11-16T01:43:35.751Z,8.90
2017-11-16T01:44:38.238Z,8.90
2017-11-16T01:45:41.763Z,8.90
2017-11-16T01:46:44.264Z,8.90
2017-11-16T01:47:47.027Z,8.90
2017-11-16T01:48:49.602Z,8.90
2017-11-16T01:49:52.382Z,8.90
2017-11-16T01:50:56.393Z,8.90
2017-11-16T01:52:00.493Z,8.90
2017-11-16T01:53:03.001Z,8.90
2017-11-16T01:54:05.506Z,8.90
2017-11-16T01:55:07.991Z,8.90
2017-11-16T01:56:10.532Z,8.90
2017-11-16T01:57:13.077Z,8.90
2017-11-16T01:58:15.900Z,8.90
2017-11-16T01:59:19.156Z,8.90
2017-11-16T02:00:21.815Z,8.90
2017-11-16T02:01:24.288Z,8.90
2017-11-16T02:02:38.938Z,8.90
2017-11-16T02:03:41.695Z,8.90
2017-11-16T02:04:44.472Z,8.90
2017-11-16T02:05:46.949Z,8.90
2017-11-16T02:06:49.529Z,8.90
2017-11-16T02:07:52.442Z,8.90
2017-11-16T02:08:55.160Z,8.90
2017-11-16T02:09:57.633Z,8.90
2017-11-16T02:11:00.185Z,8.90
2017-11-16T02:12:02.673Z,8.90
2017-11-16T02:13:05.259Z,8.80
2017-11-16T02:14:08.567Z,8.90
2017-11-16T02:15:11.166Z,8.90
2017-11-16T02:16:13.654Z,8.90
2017-11-16T02:17:16.197Z,8.90
2017-11-16T02:18:18.700Z,8.90
2017-11-16T02:19:21.230Z,8.90
2017-11-16T02:20:23.702Z,8.90
2017-11-16T02:21:26.329Z,8.90
2017-11-16T02:22:28.826Z,8.90
2017-11-16T02:23:31.698Z,8.90
2017-11-16T02:24:34.179Z,8.90
2017-11-16T02:25:36.958Z,8.90
2017-11-16T02:26:40.948Z,8.90
2017-11-16T02:27:43.543Z,8.90
2017-11-16T02:28:46.055Z,8.90
2017-11-16T02:29:48.546Z,8.90
2017-11-16T02:30:51.024Z,8.90
2017-11-16T02:31:54.525Z,8.90
2017-11-16T02:32:57.007Z,8.90
2017-11-16T02:34:00.453Z,8.90
2017-11-16T02:35:02.946Z,8.90
2017-11-16T02:36:05.504Z,8.90
2017-11-16T02:37:07.989Z,8.90
2017-11-16T02:38:11.437Z,8.90
2017-11-16T02:39:13.937Z,8.90
2017-11-16T02:40:17.395Z,8.90
2017-11-16T02:41:19.905Z,8.90
2017-11-16T02:42:23.358Z,8.90
2017-11-16T02:43:26.693Z,8.90
2017-11-16T02:44:29.291Z,8.90
2017-11-16T02:45:31.822Z,8.90
2017-11-16T02:46:34.370Z,8.90
2017-11-16T02:47:37.641Z,8.90
2017-11-16T02:48:40.378Z,8.90
2017-11-16T02:49:43.021Z,8.90
2017-11-16T02:50:45.609Z,8.90
2017-11-16T02:51:48.101Z,8.90
2017-11-16T02:52:52.253Z,8.90
2017-11-16T02:53:54.758Z,8.90
2017-11-16T02:54:58.648Z,8.90
2017-11-16T02:56:01.134Z,8.90
2017-11-16T02:57:03.836Z,8.90
2017-11-16T02:58:06.314Z,8.90
2017-11-16T02:59:09.501Z,8.90
2017-11-16T03:00:11.982Z,8.90
2017-11-16T03:01:14.493Z,8.90
2017-11-16T03:02:16.997Z,8.90
2017-11-16T03:03:19.502Z,8.90
2017-11-16T03:04:22.010Z,8.90
2017-11-16T03:05:25.433Z,8.90
2017-11-16T03:06:27.943Z,8.90
2017-11-16T03:07:31.403Z,8.90
2017-11-16T03:08:33.870Z,8.90
2017-11-16T03:09:36.451Z,8.90
2017-11-16T03:10:39.339Z,8.90
2017-11-16T03:11:43.746Z,8.90
2017-11-16T03:12:46.244Z,8.90
2017-11-16T03:13:48.944Z,8.90
2017-11-16T03:14:51.442Z,8.90
2017-11-16T03:15:54.904Z,8.90
2017-11-16T03:16:57.395Z,8.90
2017-11-16T03:18:00.868Z,8.90
2017-11-16T03:19:03.365Z,8.90
2017-11-16T03:20:06.803Z,8.90
2017-11-16T03:21:09.281Z,8.90
2017-11-16T03:22:11.870Z,8.90
2017-11-16T03:23:14.334Z,8.90
2017-11-16T03:24:16.898Z,8.90
2017-11-16T03:25:19.416Z,8.90
2017-11-16T03:26:21.939Z,8.90
2017-11-16T03:27:25.190Z,8.90
2017-11-16T03:28:27.844Z,8.90
2017-11-16T03:29:30.362Z,8.90
2017-11-16T03:30:33.805Z,8.90
2017-11-16T03:31:36.305Z,8.90
2017-11-16T03:32:39.775Z,8.90
2017-11-16T03:33:42.264Z,8.90
2017-11-16T03:34:45.717Z,8.90
2017-11-16T03:35:48.230Z,8.90
2017-11-16T03:36:51.656Z,8.90
2017-11-16T03:37:54.152Z,8.90
2017-11-16T03:38:56.697Z,8.90
2017-11-16T03:39:59.185Z,8.90
2017-11-16T03:41:02.637Z,8.90
2017-11-16T03:42:05.132Z,8.90
2017-11-16T03:43:07.713Z,8.80
2017-11-16T03:44:10.186Z,8.90
2017-11-16T03:45:13.642Z,8.90
2017-11-16T03:46:16.149Z,8.90
2017-11-16T03:47:19.592Z,8.90
2017-11-16T03:48:22.195Z,8.90
2017-11-16T03:49:25.534Z,8.90
2017-11-16T03:50:28.010Z,8.90
2017-11-16T03:51:30.555Z,8.90
2017-11-16T03:52:33.061Z,8.90
2017-11-16T03:53:35.628Z,8.90
2017-11-16T03:54:38.115Z,8.90
2017-11-16T03:55:41.548Z,8.90
2017-11-16T03:56:44.055Z,8.90
2017-11-16T03:57:46.574Z,8.90
2017-11-16T03:58:49.600Z,8.90
2017-11-16T03:59:52.255Z,8.90
2017-11-16T04:00:54.725Z,8.90
2017-11-16T04:01:57.261Z,8.80
2017-11-16T04:02:59.746Z,8.90
2017-11-16T04:04:03.433Z,8.80
2017-11-16T04:05:05.922Z,8.80
2017-11-16T04:06:09.178Z,8.90
2017-11-16T04:07:11.647Z,8.90
2017-11-16T04:08:15.111Z,8.90
2017-11-16T04:09:17.623Z,8.90
2017-11-16T04:10:20.168Z,8.90
2017-11-16T04:11:23.456Z,8.80
2017-11-16T04:12:26.182Z,8.80
2017-11-16T04:13:28.674Z,8.90
2017-11-16T04:14:31.471Z,8.90
2017-11-16T04:15:35.718Z,8.90
2017-11-16T04:16:38.572Z,8.90
2017-11-16T04:17:41.822Z,8.90
2017-11-16T04:18:47.117Z,8.90
2017-11-16T04:19:49.614Z,8.90
2017-11-16T04:20:52.373Z,8.90
2017-11-16T04:21:54.870Z,8.90
2017-11-16T04:22:57.422Z,8.90
2017-11-16T04:24:00.668Z,8.90
2017-11-16T04:25:03.375Z,8.90
2017-11-16T04:26:05.898Z,8.90
2017-11-16T04:27:08.400Z,8.90
2017-11-16T04:28:10.885Z,8.90
2017-11-16T04:29:13.439Z,8.90
2017-11-16T04:30:16.686Z,8.90
2017-11-16T04:31:19.404Z,8.90
2017-11-16T04:32:21.887Z,8.90
2017-11-16T04:33:25.330Z,8.90
2017-11-16T04:34:27.861Z,8.90
2017-11-16T04:35:30.367Z,9.00
2017-11-16T04:36:32.845Z,9.00
2017-11-16T04:37:36.319Z,9.00
2017-11-16T04:38:38.823Z,9.00
2017-11-16T04:39:42.289Z,8.90
2017-11-16T04:40:44.791Z,8.90
2017-11-16T04:41:47.292Z,8.90
2017-11-16T04:42:49.765Z,8.90
2017-11-16T04:43:52.357Z,8.90
2017-11-16T04:44:54.843Z,8.90
2017-11-16T04:45:58.285Z,8.90
2017-11-16T04:47:00.842Z,8.90
2017-11-16T04:48:03.333Z,8.90
2017-11-16T04:49:06.593Z,9.00
2017-11-16T04:50:09.263Z,9.00
2017-11-16T04:51:11.777Z,9.00
2017-11-16T04:52:15.221Z,9.00
2017-11-16T04:53:17.762Z,8.90
2017-11-16T04:54:20.271Z,9.00
2017-11-16T04:55:22.775Z,9.00
2017-11-16T04:56:25.338Z,9.00
2017-11-16T04:57:28.613Z,8.90
2017-11-16T04:58:32.769Z,9.00
2017-11-16T04:59:35.270Z,8.90
2017-11-16T05:00:37.803Z,9.00
2017-11-16T05:01:40.282Z,9.00
2017-11-16T05:02:43.775Z,8.90
2017-11-16T05:03:46.261Z,8.90
2017-11-16T05:04:49.706Z,9.00
2017-11-16T05:05:52.185Z,9.00
2017-11-16T05:06:54.743Z,9.00
2017-11-16T05:07:57.547Z,9.00
2017-11-16T05:09:01.021Z,9.00
2017-11-16T05:10:03.546Z,9.00
2017-11-16T05:11:06.045Z,9.00
2017-11-16T05:12:08.536Z,9.00
2017-11-16T05:13:12.016Z,9.00
2017-11-16T05:14:14.492Z,9.00
2017-11-16T05:15:17.936Z,8.90
2017-11-16T05:16:20.442Z,8.90
2017-11-16T05:17:23.881Z,9.00
2017-11-16T05:18:26.493Z,9.00
2017-11-16T05:19:29.852Z,9.00
2017-11-16T05:20:32.327Z,8.90
2017-11-16T05:21:35.808Z,9.00
2017-11-16T05:22:38.302Z,8.90
2017-11-16T05:23:42.674Z,8.90
2017-11-16T05:24:45.154Z,8.90
2017-11-16T05:25:48.628Z,8.90
2017-11-16T05:26:51.108Z,8.90
2017-11-16T05:27:53.657Z,8.90
2017-11-16T05:28:56.149Z,8.90
2017-11-16T05:29:58.717Z,8.90
2017-11-16T05:31:01.970Z,8.90
2017-11-16T05:32:04.671Z,8.90
2017-11-16T05:33:07.161Z,8.90
2017-11-16T05:34:09.688Z,8.90
2017-11-16T05:35:13.715Z,8.90
2017-11-16T05:36:17.184Z,8.90
2017-11-16T05:37:19.688Z,8.90
2017-11-16T05:38:22.181Z,8.90
2017-11-16T05:39:24.678Z,8.90
2017-11-16T05:40:27.225Z,8.90
2017-11-16T05:41:29.718Z,8.80
2017-11-16T05:42:32.278Z,8.90
2017-11-16T05:43:34.755Z,8.90
2017-11-16T05:44:38.287Z,8.80
2017-11-16T05:45:40.789Z,8.90
2017-11-16T05:46:44.504Z,8.90
2017-11-16T05:47:46.981Z,8.80
2017-11-16T05:48:50.717Z,8.80
2017-11-16T05:49:53.203Z,8.80
2017-11-16T05:50:55.774Z,8.80
2017-11-16T05:51:58.261Z,8.80
2017-11-16T05:53:01.707Z,8.80
2017-11-16T05:54:04.187Z,8.80
2017-11-16T05:55:06.734Z,8.80
2017-11-16T05:56:09.238Z,8.80
2017-11-16T05:57:11.785Z,8.80
2017-11-16T05:58:14.298Z,8.80
2017-11-16T05:59:18.577Z,8.80
2017-11-16T06:00:21.096Z,8.80
2017-11-16T06:01:24.611Z,8.80
2017-11-16T06:02:27.185Z,8.80
2017-11-16T06:03:29.717Z,8.80
2017-11-16T06:04:32.270Z,8.80
2017-11-16T06:05:34.962Z,8.80
2017-11-16T06:06:37.446Z,8.80
2017-11-16T06:07:40.050Z,8.80
2017-11-16T06:08:43.307Z,8.80
2017-11-16T06:09:45.973Z,8.80
2017-11-16T06:10:49.214Z,8.80
2017-11-16T06:11:51.906Z,8.80
2017-11-16T06:12:54.384Z,8.80
2017-11-16T06:13:56.967Z,8.80
2017-11-16T06:14:59.480Z,8.80
2017-11-16T06:16:01.976Z,8.80
2017-11-16T06:17:04.458Z,8.80
2017-11-16T06:18:06.982Z,8.80
2017-11-16T06:19:09.487Z,8.80
2017-11-16T06:20:13.028Z,8.70
2017-11-16T06:21:16.098Z,8.70
2017-11-16T06:22:18.624Z,8.80
2017-11-16T06:23:21.105Z,8.80
2017-11-16T06:24:24.623Z,8.80
2017-11-16T06:25:27.141Z,8.70
2017-11-16T06:26:31.129Z,8.80
2017-11-16T06:27:33.633Z,8.80
2017-11-16T06:28:37.058Z,8.70
2017-11-16T06:29:39.548Z,8.70
2017-11-16T06:30:42.097Z,8.80
2017-11-16T06:31:44.594Z,8.80
2017-11-16T06:32:47.112Z,8.80
2017-11-16T06:33:49.590Z,8.80
2017-11-16T06:34:52.176Z,8.80
2017-11-16T06:35:54.673Z,8.80
2017-11-16T06:36:58.119Z,8.80
2017-11-16T06:38:00.597Z,8.80
2017-11-16T06:39:03.146Z,8.80
2017-11-16T06:40:05.630Z,8.80
2017-11-16T06:41:08.241Z,8.80
2017-11-16T06:42:10.760Z,8.80
2017-11-16T06:43:13.267Z,8.80
2017-11-16T06:44:16.571Z,8.80
2017-11-16T06:45:19.175Z,8.80
2017-11-16T06:46:21.702Z,8.80
2017-11-16T06:47:24.201Z,8.80
2017-11-16T06:48:26.845Z,8.80
2017-11-16T06:49:29.609Z,8.70
2017-11-16T06:50:32.088Z,8.70
2017-11-16T06:51:34.572Z,8.80
2017-11-16T06:52:37.063Z,8.70
2017-11-16T06:53:41.160Z,8.80
2017-11-16T06:54:44.402Z,8.80
2017-11-16T06:55:47.092Z,8.80
2017-11-16T06:56:49.564Z,8.80
2017-11-16T06:57:52.194Z,8.80
2017-11-16T06:58:54.746Z,8.70
2017-11-16T06:59:58.080Z,8.80
2017-11-16T07:01:00.560Z,8.70
2017-11-16T07:02:04.630Z,8.80
2017-11-16T07:03:07.114Z,8.70
2017-11-16T07:04:09.685Z,8.70
2017-11-16T07:05:12.152Z,8.70
2017-11-16T07:06:14.730Z,8.70
2017-11-16T07:07:17.269Z,8.80
2017-11-16T07:08:20.677Z,8.70
2017-11-16T07:09:23.949Z,8.70
2017-11-16T07:10:26.679Z,8.70
2017-11-16T07:11:30.773Z,8.70
2017-11-16T07:12:34.090Z,8.70
2017-11-16T07:13:36.581Z,8.70
2017-11-16T07:14:39.418Z,8.70
2017-11-16T07:15:41.893Z,8.70
2017-11-16T07:16:44.475Z,8.70
2017-11-16T07:17:46.968Z,8.70
2017-11-16T07:18:50.429Z,8.80
2017-11-16T07:19:52.918Z,8.70
2017-11-16T07:20:55.528Z,8.80
2017-11-16T07:21:58.006Z,8.80
2017-11-16T07:23:00.472Z,8.80
2017-11-16T07:24:02.952Z,8.80
2017-11-16T07:25:05.529Z,8.70
2017-11-16T07:26:08.011Z,8.80
2017-11-16T07:27:10.537Z,8.80
2017-11-16T07:28:13.748Z,8.80
2017-11-16T07:29:16.543Z,8.80
2017-11-16T07:30:19.813Z,8.80
2017-11-16T07:31:22.494Z,8.80
2017-11-16T07:32:25.745Z,8.80
2017-11-16T07:33:28.400Z,8.80
2017-11-16T07:34:30.893Z,8.80
2017-11-16T07:35:33.485Z,8.80
2017-11-16T07:36:36.939Z,8.80
2017-11-16T07:37:39.867Z,8.80
2017-11-16T07:38:43.603Z,8.80
2017-11-16T07:39:46.257Z,8.90
2017-11-16T07:40:52.346Z,8.80
2017-11-16T07:41:55.610Z,8.90
2017-11-16T07:42:58.089Z,8.90
2017-11-16T07:44:00.633Z,8.90
2017-11-16T07:45:03.115Z,8.90
2017-11-16T07:46:07.218Z,8.90
2017-11-16T07:47:10.470Z,8.80
2017-11-16T07:48:14.126Z,8.90
2017-11-16T07:49:16.612Z,8.90
2017-11-16T07:50:20.358Z,8.90
2017-11-16T07:51:22.873Z,8.90
2017-11-16T07:52:25.366Z,8.90
2017-11-16T07:53:27.851Z,9.00
2017-11-16T07:54:30.521Z,8.90
2017-11-16T07:55:33.776Z,9.00
2017-11-16T07:56:36.409Z,8.90
2017-11-16T07:57:38.967Z,8.90
2017-11-16T07:58:42.323Z,8.90
2017-11-16T07:59:44.829Z,8.90
2017-11-16T08:00:47.401Z,9.00
2017-11-16T08:01:49.883Z,9.00
2017-11-16T08:02:52.380Z,9.00
2017-11-16T08:03:54.895Z,9.00
2017-11-16T08:04:57.497Z,9.00
2017-11-16T08:06:00.000Z,9.00
2017-11-16T08:07:03.471Z,9.00
2017-11-16T08:08:05.968Z,9.00
2017-11-16T08:09:09.456Z,9.00
2017-11-16T08:10:12.009Z,9.00
2017-11-16T08:11:14.816Z,9.00
2017-11-16T08:12:17.312Z,9.10
2017-11-16T08:13:20.108Z,9.00
2017-11-16T08:14:22.608Z,9.00
2017-11-16T08:15:25.419Z,9.00
2017-11-16T08:16:27.953Z,9.00
2017-11-16T08:17:30.890Z,9.00
2017-11-16T08:18:33.388Z,9.00
2017-11-16T08:19:36.124Z,9.00
2017-11-16T08:20:38.611Z,9.10
2017-11-16T08:21:42.060Z,9.10
2017-11-16T08:22:44.552Z,9.10
2017-11-16T08:23:48.611Z,9.20
2017-11-16T08:24:51.105Z,9.10
2017-11-16T08:25:53.662Z,9.20
2017-11-16T08:26:56.146Z,9.20
2017-11-16T08:27:58.689Z,9.20
2017-11-16T08:29:01.217Z,9.10
2017-11-16T08:30:04.009Z,9.10
2017-11-16T08:31:06.594Z,9.10
2017-11-16T08:32:10.898Z,9.10
2017-11-16T08:33:13.457Z,9.10
2017-11-16T08:34:17.420Z,9.10
2017-11-16T08:35:19.939Z,9.10
2017-11-16T08:36:22.488Z,9.10
2017-11-16T08:37:24.993Z,9.20
2017-11-16T08:38:28.484Z,9.10
2017-11-16T08:39:31.741Z,9.20
2017-11-16T08:40:34.397Z,9.10
2017-11-16T08:41:36.882Z,9.10
2017-11-16T08:42:41.247Z,9.10
2017-11-16T08:43:43.774Z,9.10
2017-11-16T08:44:47.294Z,9.10
2017-11-16T08:45:49.790Z,9.10
2017-11-16T08:46:52.591Z,9.20
2017-11-16T08:47:55.122Z,9.20
2017-11-16T08:48:57.930Z,9.20
2017-11-16T08:50:00.423Z,9.20
2017-11-16T08:51:03.906Z,9.20
2017-11-16T08:52:07.910Z,9.20
2017-11-16T08:53:10.719Z,9.20
2017-11-16T08:54:13.317Z,9.20
2017-11-16T08:55:16.867Z,9.20
2017-11-16T08:56:19.390Z,9.20
2017-11-16T08:57:22.972Z,9.20
2017-11-16T08:58:25.512Z,9.20
2017-11-16T08:59:28.309Z,9.30
2017-11-16T09:00:30.877Z,9.30
2017-11-16T09:01:34.233Z,9.20
2017-11-16T09:02:36.721Z,9.20
2017-11-16T09:03:40.819Z,9.30
2017-11-16T09:04:43.296Z,9.30
2017-11-16T09:05:45.891Z,9.30
2017-11-16T09:06:49.148Z,9.40
2017-11-16T09:07:51.824Z,9.30
2017-11-16T09:08:54.458Z,9.40
2017-11-16T09:09:57.132Z,9.40
2017-11-16T09:10:59.636Z,9.40
2017-11-16T09:12:03.129Z,9.40
2017-11-16T09:13:06.391Z,9.40
2017-11-16T09:14:09.040Z,9.40
2017-11-16T09:15:11.530Z,9.40
2017-11-16T09:16:15.025Z,9.40
2017-11-16T09:17:18.321Z,9.40
2017-11-16T09:18:20.955Z,9.40
2017-11-16T09:19:23.540Z,9.50
2017-11-16T09:20:26.957Z,9.60
2017-11-16T09:21:29.511Z,9.50
2017-11-16T09:22:32.878Z,9.50
2017-11-16T09:23:35.384Z,9.50
2017-11-16T09:24:38.222Z,9.50
2017-11-16T09:25:41.491Z,9.60
2017-11-16T09:26:44.269Z,9.60
2017-11-16T09:27:46.991Z,9.60
2017-11-16T09:28:51.078Z,9.60
2017-11-16T09:29:53.582Z,9.60
2017-11-16T09:30:56.402Z,9.70
2017-11-16T09:31:59.666Z,9.70
2017-11-16T09:33:02.314Z,9.60
2017-11-16T09:34:04.810Z,9.60
2017-11-16T09:35:08.282Z,9.60
2017-11-16T09:36:10.761Z,9.60
2017-11-16T09:37:14.227Z,9.50
2017-11-16T09:38:17.595Z,9.50
2017-11-16T09:39:20.212Z,9.50
2017-11-16T09:40:23.477Z,9.50
2017-11-16T09:41:26.146Z,9.50
2017-11-16T09:42:29.572Z,9.60
2017-11-16T09:43:32.532Z,9.60
2017-11-16T09:44:35.838Z,9.70
2017-11-16T09:45:38.669Z,9.60
2017-11-16T09:46:41.164Z,9.60
2017-11-16T09:47:44.017Z,9.60
2017-11-16T09:48:47.411Z,9.60
2017-11-16T09:49:50.871Z,9.50
2017-11-16T09:50:53.352Z,9.50
2017-11-16T09:51:57.348Z,9.60
2017-11-16T09:52:59.850Z,9.60
2017-11-16T09:54:03.641Z,9.60
2017-11-16T09:55:06.161Z,9.60
2017-11-16T09:56:08.833Z,9.60
2017-11-16T09:57:11.323Z,9.60
2017-11-16T09:58:14.690Z,9.60
2017-11-16T09:59:17.298Z,9.60
2017-11-16T10:00:20.160Z,9.60
2017-11-16T10:01:22.918Z,9.60
2017-11-16T10:02:26.270Z,9.70
2017-11-16T10:03:28.900Z,9.70
2017-11-16T10:04:31.784Z,9.70
2017-11-16T10:05:34.306Z,9.70
2017-11-16T10:06:37.890Z,9.80
2017-11-16T10:07:41.167Z,9.90
2017-11-16T10:08:43.924Z,9.90
2017-11-16T10:09:46.417Z,9.90
2017-11-16T10:10:49.866Z,10.00
2017-11-16T10:11:53.252Z,10.00
2017-11-16T10:12:56.097Z,10.00
2017-11-16T10:13:58.613Z,10.00
2017-11-16T10:15:01.436Z,10.00
2017-11-16T10:16:04.110Z,10.10
2017-11-16T10:17:06.771Z,10.10
2017-11-16T10:18:09.310Z,10.10
2017-11-16T10:19:13.498Z,10.10
2017-11-16T10:20:16.028Z,10.10
2017-11-16T10:21:18.679Z,10.10
2017-11-16T10:22:21.284Z,10.20
2017-11-16T10:23:23.991Z,10.20
2017-11-16T10:24:27.265Z,10.30
2017-11-16T10:25:30.842Z,10.30
2017-11-16T10:26:33.554Z,10.20
2017-11-16T10:27:36.211Z,10.30
2017-11-16T10:28:39.487Z,10.30
2017-11-16T10:29:43.078Z,10.30
2017-11-16T10:30:46.342Z,10.20
2017-11-16T10:31:49.001Z,10.20
2017-11-16T10:32:51.537Z,10.30
2017-11-16T10:33:54.361Z,10.30
2017-11-16T10:34:57.635Z,10.30
2017-11-16T10:36:01.547Z,10.30
2017-11-16T10:37:04.821Z,10.40
2017-11-16T10:38:07.517Z,10.40
2017-11-16T10:39:10.846Z,10.40
2017-11-16T10:40:13.472Z,10.30
2017-11-16T10:41:16.017Z,10.40
2017-11-16T10:42:20.617Z,10.30
2017-11-16T10:43:23.110Z,10.30
2017-11-16T10:44:26.951Z,10.40
2017-11-16T10:45:29.517Z,10.40
2017-11-16T10:46:32.189Z,10.40
2017-11-16T10:47:34.691Z,10.30
2017-11-16T10:48:37.234Z,10.30
2017-11-16T10:49:39.743Z,10.40
2017-11-16T10:50:42.620Z,10.40
2017-11-16T10:51:45.888Z,10.40
2017-11-16T10:52:49.523Z,10.50
2017-11-16T10:53:52.014Z,10.50
2017-11-16T10:54:54.784Z,10.60
2017-11-16T10:55:57.299Z,10.60
2017-11-16T10:57:01.675Z,10.60
2017-11-16T10:58:04.173Z,10.60
2017-11-16T10:59:07.675Z,10.70
2017-11-16T11:00:10.194Z,10.70
2017-11-16T11:01:12.999Z,10.80
2017-11-16T11:02:16.401Z,10.80
2017-11-16T11:03:19.226Z,10.70
2017-11-16T11:04:21.711Z,10.80
2017-11-16T11:05:25.368Z,10.70
2017-11-16T11:06:27.911Z,10.70
2017-11-16T11:07:30.549Z,10.70
2017-11-16T11:08:34.137Z,10.70
2017-11-16T11:09:37.754Z,10.80
2017-11-16T11:10:42.668Z,10.80
2017-11-16T11:11:45.548Z,10.90
2017-11-16T11:12:48.031Z,10.70
2017-11-16T11:13:50.834Z,10.80
2017-11-16T11:14:53.369Z,10.80
2017-11-16T11:15:56.201Z,10.90
2017-11-16T11:17:00.222Z,10.90
2017-11-16T11:18:03.067Z,10.90
2017-11-16T11:19:06.352Z,11.00
2017-11-16T11:20:09.043Z,11.00
2017-11-16T11:21:11.548Z,11.00
2017-11-16T11:22:14.383Z,11.00
2017-11-16T11:23:16.900Z,11.00
2017-11-16T11:24:19.725Z,11.10
2017-11-16T11:25:22.311Z,11.10
2017-11-16T11:26:25.043Z,11.10
2017-11-16T11:27:28.299Z,10.80
2017-11-16T11:28:30.965Z,10.90
2017-11-16T11:29:33.449Z,10.80
2017-11-16T11:30:36.332Z,10.80
2017-11-16T11:31:39.604Z,10.80
2017-11-16T11:32:43.173Z,10.90
2017-11-16T11:33:45.684Z,10.90
2017-11-16T11:34:49.157Z,11.00
2017-11-16T11:35:52.430Z,11.00
2017-11-16T11:36:55.059Z,11.00
2017-11-16T11:37:59.200Z,11.00
2017-11-16T11:39:03.323Z,11.00
2017-11-16T11:40:05.858Z,11.00
2017-11-16T11:41:08.526Z,11.10
2017-11-16T11:42:11.011Z,11.10
2017-11-16T11:43:14.541Z,11.10
2017-11-16T11:44:17.052Z,11.10
2017-11-16T11:45:19.873Z,11.20
2017-11-16T11:46:22.416Z,11.20
2017-11-16T11:47:25.790Z,11.30
2017-11-16T11:48:28.297Z,11.30
2017-11-16T11:49:31.127Z,11.30
2017-11-16T11:50:33.648Z,11.30
2017-11-16T11:51:36.510Z,11.30
2017-11-16T11:52:39.302Z,11.40
2017-11-16T11:53:42.966Z,11.40
2017-11-16T11:54:45.450Z,11.40
2017-11-16T11:55:48.058Z,11.40
2017-11-16T11:56:50.565Z,11.20
2017-11-16T11:57:53.384Z,11.20
2017-11-16T11:58:55.862Z,11.20
2017-11-16T11:59:59.857Z,11.10
2017-11-16T12:01:02.352Z,11.10
2017-11-16T12:02:05.823Z,11.10
2017-11-16T12:03:08.326Z,11.10
2017-11-16T12:04:11.682Z,11.00
2017-11-16T12:05:15.005Z,11.10
2017-11-16T12:06:17.846Z,11.10
2017-11-16T12:07:21.108Z,11.00
2017-11-16T12:08:24.351Z,11.00
2017-11-16T12:09:26.850Z,11.00
2017-11-16T12:10:29.339Z,11.00
2017-11-16T12:11:31.900Z,11.10
2017-11-16T12:12:34.448Z,11.10
2017-11-16T12:13:36.952Z,11.20
2017-11-16T12:14:41.635Z,11.40
2017-11-16T12:15:44.141Z,11.30
2017-11-16T12:16:47.017Z,11.30
2017-11-16T12:17:49.542Z,11.40
2017-11-16T12:18:52.312Z,11.40
2017-11-16T12:19:54.802Z,11.20
2017-11-16T12:21:00.108Z,11.30
2017-11-16T12:22:02.605Z,11.30
2017-11-16T12:23:06.218Z,11.30
2017-11-16T12:24:08.724Z,11.40
2017-11-16T12:25:11.444Z,11.30
2017-11-16T12:26:14.147Z,11.40
2017-11-16T12:27:16.913Z,11.30
2017-11-16T12:28:19.430Z,11.30
2017-11-16T12:29:23.031Z,11.30
2017-11-16T12:30:26.291Z,11.20
2017-11-16T12:31:28.872Z,11.20
2017-11-16T12:32:32.150Z,11.00
2017-11-16T12:33:34.896Z,11.00
2017-11-16T12:34:37.381Z,11.00
2017-11-16T12:35:39.898Z,11.00
2017-11-16T12:36:42.407Z,10.90
2017-11-16T12:37:44.922Z,10.90
2017-11-16T12:38:47.415Z,11.00
2017-11-16T12:39:51.215Z,11.00
2017-11-16T12:40:53.711Z,11.00
2017-11-16T12:41:57.170Z,10.80
2017-11-16T12:42:59.732Z,10.80
2017-11-16T12:44:02.591Z,10.70
2017-11-16T12:45:05.133Z,10.70
2017-11-16T12:46:07.846Z,10.70
2017-11-16T12:47:10.367Z,10.70
2017-11-16T12:48:13.251Z,10.70
2017-11-16T12:49:17.019Z,10.70
2017-11-16T12:50:20.718Z,10.80
2017-11-16T12:51:23.955Z,10.80
2017-11-16T12:52:26.633Z,10.80
2017-11-16T12:53:29.132Z,10.70
2017-11-16T12:54:32.603Z,10.70
2017-11-16T12:55:36.026Z,10.70
2017-11-16T12:56:38.827Z,10.70
2017-11-16T12:57:41.318Z,10.70
2017-11-16T12:58:43.823Z,10.80
2017-11-16T12:59:46.318Z,10.80
2017-11-16T13:00:48.957Z,10.80
2017-11-16T13:01:51.553Z,10.80
2017-11-16T13:02:54.249Z,10.90
2017-11-16T13:03:56.748Z,11.00
2017-11-16T13:05:00.231Z,11.10
2017-11-16T13:06:03.478Z,11.10
2017-11-16T13:07:06.144Z,11.10
2017-11-16T13:08:08.738Z,11.20
2017-11-16T13:09:11.607Z,11.20
2017-11-16T13:10:14.118Z,11.30
2017-11-16T13:11:17.049Z,11.30
2017-11-16T13:12:19.843Z,11.30
2017-11-16T13:13:23.906Z,11.30
2017-11-16T13:14:27.505Z,11.30
2017-11-16T13:15:31.853Z,11.30
2017-11-16T13:16:37.487Z,11.30
2017-11-16T13:17:42.326Z,11.30
2017-11-16T13:18:45.705Z,11.20
2017-11-16T13:19:49.321Z,11.10
2017-11-16T13:20:52.633Z,11.00
2017-11-16T13:21:55.374Z,10.90
2017-11-16T13:22:58.230Z,10.90
2017-11-16T13:24:00.861Z,10.80
2017-11-16T13:25:03.917Z,10.70
2017-11-16T13:26:06.534Z,10.70
2017-11-16T13:27:09.063Z,10.70
2017-11-16T13:28:11.831Z,10.70
2017-11-16T13:29:14.370Z,10.60
2017-11-16T13:30:17.513Z,10.70
2017-11-16T13:31:20.116Z,10.70
2017-11-16T13:32:22.808Z,10.70
2017-11-16T13:33:25.666Z,10.80
2017-11-16T13:34:28.884Z,10.80
2017-11-16T13:35:31.828Z,10.90
2017-11-16T13:36:34.585Z,10.90
2017-11-16T13:37:37.723Z,11.00
2017-11-16T13:38:41.654Z,11.00
2017-11-16T13:39:45.428Z,11.00
2017-11-16T13:40:50.780Z,10.90
2017-11-16T13:41:54.801Z,10.80
2017-11-16T13:42:57.639Z,10.80
2017-11-16T13:44:01.170Z,10.80
2017-11-16T13:45:04.101Z,10.80
2017-11-16T13:46:07.566Z,10.70
2017-11-16T13:47:10.318Z,10.70
2017-11-16T13:48:13.259Z,10.60
2017-11-16T13:49:16.043Z,10.50
2017-11-16T13:50:18.815Z,10.40